sensor_id;sensor_type;location;lat;lon;timestamp;P1;durP1;ratioP1;P2;durP2;ratioP2
77278;SDS011;66332;50.436;15.378;2023-04-15T04:04:51;9.32;;;4.65;;
77278;SDS011;66332;50.436;15.378;2023-04-15T04:09:32;8.60;;;4.05;;
77278;SDS011;66332;50.436;15.378;2023-04-15T04:14:13;7.20;;;3.38;;
77278;SDS011;66332;50.436;15.378;2023-04-15T04:18:53;7.25;;;3.45;;
77278;SDS011;66332;50.436;15.378;2023-04-15T04:23:34;8.43;;;3.90;;
77278;SDS011;66332;50.436;15.378;2023-04-15T04:28:15;7.45;;;3.00;;
77278;SDS011;66332;50.436;15.378;2023-04-15T04:32:56;7.43;;;3.30;;
77278;SDS011;66332;50.436;15.378;2023-04-15T04:37:37;6.47;;;2.90;;
77278;SDS011;66332;50.436;15.378;2023-04-15T04:42:18;7.18;;;3.40;;
77278;SDS011;66332;50.436;15.378;2023-04-15T04:46:59;5.75;;;2.50;;
77278;SDS011;66332;50.436;15.378;2023-04-15T04:51:40;5.53;;;2.22;;
77278;SDS011;66332;50.436;15.378;2023-04-15T04:56:21;5.20;;;2.00;;
77278;SDS011;66332;50.436;15.378;2023-04-15T05:01:03;5.78;;;2.30;;
77278;SDS011;66332;50.436;15.378;2023-04-15T05:05:44;4.70;;;1.80;;
77278;SDS011;66332;50.436;15.378;2023-04-15T05:10:25;4.80;;;1.90;;
77278;SDS011;66332;50.436;15.378;2023-04-15T05:15:06;4.78;;;1.90;;
77278;SDS011;66332;50.436;15.378;2023-04-15T05:19:48;4.30;;;1.45;;
77278;SDS011;66332;50.436;15.378;2023-04-15T05:24:28;4.25;;;1.70;;
77278;SDS011;66332;50.436;15.378;2023-04-15T05:29:09;4.25;;;1.50;;
77278;SDS011;66332;50.436;15.378;2023-04-15T05:33:50;4.05;;;1.52;;
77278;SDS011;66332;50.436;15.378;2023-04-15T05:38:31;4.30;;;1.65;;
77278;SDS011;66332;50.436;15.378;2023-04-15T05:43:12;3.92;;;1.40;;
77278;SDS011;66332;50.436;15.378;2023-04-15T05:47:53;3.88;;;1.35;;
77278;SDS011;66332;50.436;15.378;2023-04-15T05:52:35;4.05;;;1.10;;
77278;SDS011;66332;50.436;15.378;2023-04-15T05:57:16;2.90;;;1.10;;
77278;SDS011;66332;50.436;15.378;2023-04-15T06:01:57;2.45;;;1.00;;
77278;SDS011;66332;50.436;15.378;2023-04-15T06:06:38;3.67;;;1.45;;
77278;SDS011;66332;50.436;15.378;2023-04-15T06:11:20;3.08;;;1.20;;
77278;SDS011;66332;50.436;15.378;2023-04-15T06:16:01;3.45;;;1.20;;
77278;SDS011;66332;50.436;15.378;2023-04-15T06:20:43;4.22;;;1.60;;
77278;SDS011;66332;50.436;15.378;2023-04-15T06:25:24;4.40;;;1.58;;
77278;SDS011;66332;50.436;15.378;2023-04-15T06:30:06;4.15;;;1.63;;
77278;SDS011;66332;50.436;15.378;2023-04-15T06:34:48;4.60;;;1.60;;
77278;SDS011;66332;50.436;15.378;2023-04-15T06:39:30;10.85;;;4.53;;
77278;SDS011;66332;50.436;15.378;2023-04-15T06:44:11;3.10;;;1.10;;
77278;SDS011;66332;50.436;15.378;2023-04-15T06:48:53;3.80;;;1.48;;
77278;SDS011;66332;50.436;15.378;2023-04-15T06:53:34;4.47;;;1.75;;
77278;SDS011;66332;50.436;15.378;2023-04-15T06:58:15;4.00;;;1.50;;
77278;SDS011;66332;50.436;15.378;2023-04-15T07:02:56;4.43;;;1.50;;
77278;SDS011;66332;50.436;15.378;2023-04-15T07:07:37;18.63;;;8.38;;
77278;SDS011;66332;50.436;15.378;2023-04-15T07:12:18;4.70;;;1.70;;
77278;SDS011;66332;50.436;15.378;2023-04-15T07:17:00;4.18;;;1.45;;
77278;SDS011;66332;50.436;15.378;2023-04-15T07:21:41;3.75;;;1.40;;
77278;SDS011;66332;50.436;15.378;2023-04-15T07:26:25;3.55;;;1.20;;
77278;SDS011;66332;50.436;15.378;2023-04-15T07:31:05;4.45;;;1.40;;
77278;SDS011;66332;50.436;15.378;2023-04-15T07:35:46;5.93;;;1.48;;
77278;SDS011;66332;50.436;15.378;2023-04-15T07:40:28;3.97;;;1.40;;
77278;SDS011;66332;50.436;15.378;2023-04-15T07:45:10;7.03;;;2.58;;
77278;SDS011;66332;50.436;15.378;2023-04-15T07:49:52;5.53;;;1.73;;
77278;SDS011;66332;50.436;15.378;2023-04-15T07:54:32;11.53;;;6.07;;
77278;SDS011;66332;50.436;15.378;2023-04-15T07:59:14;4.45;;;1.60;;
77278;SDS011;66332;50.436;15.378;2023-04-15T08:04:00;4.45;;;1.52;;
77278;SDS011;66332;50.436;15.378;2023-04-15T08:08:41;4.25;;;1.40;;
77278;SDS011;66332;50.436;15.378;2023-04-15T08:13:23;4.40;;;1.70;;
77278;SDS011;66332;50.436;15.378;2023-04-15T08:18:05;5.10;;;1.80;;
77278;SDS011;66332;50.436;15.378;2023-04-15T08:22:46;5.20;;;1.85;;
77278;SDS011;66332;50.436;15.378;2023-04-15T08:27:31;4.50;;;1.60;;
77278;SDS011;66332;50.436;15.378;2023-04-15T08:32:12;4.80;;;1.90;;
77278;SDS011;66332;50.436;15.378;2023-04-15T08:36:53;5.35;;;1.90;;
77278;SDS011;66332;50.436;15.378;2023-04-15T08:41:44;4.97;;;1.77;;
77278;SDS011;66332;50.436;15.378;2023-04-15T08:46:27;3.75;;;1.30;;
77278;SDS011;66332;50.436;15.378;2023-04-15T08:51:10;8.32;;;3.22;;
77278;SDS011;66332;50.436;15.378;2023-04-15T08:55:56;4.43;;;1.52;;
77278;SDS011;66332;50.436;15.378;2023-04-15T09:00:41;4.00;;;1.35;;
77278;SDS011;66332;50.436;15.378;2023-04-15T09:05:22;3.20;;;1.10;;
77278;SDS011;66332;50.436;15.378;2023-04-15T09:10:03;2.72;;;1.02;;
77278;SDS011;66332;50.436;15.378;2023-04-15T09:19:25;4.13;;;1.42;;
77278;SDS011;66332;50.436;15.378;2023-04-15T09:24:07;5.78;;;1.63;;
77278;SDS011;66332;50.436;15.378;2023-04-15T09:28:48;3.35;;;1.17;;
77278;SDS011;66332;50.436;15.378;2023-04-15T09:33:29;2.47;;;1.02;;
77278;SDS011;66332;50.436;15.378;2023-04-15T09:38:09;3.60;;;1.10;;
77278;SDS011;66332;50.436;15.378;2023-04-15T09:42:54;3.25;;;1.15;;
77278;SDS011;66332;50.436;15.378;2023-04-15T09:47:35;2.92;;;1.08;;
77278;SDS011;66332;50.436;15.378;2023-04-15T09:52:16;4.20;;;1.48;;
77278;SDS011;66332;50.436;15.378;2023-04-15T09:57:03;3.42;;;1.20;;
77278;SDS011;66332;50.436;15.378;2023-04-15T10:01:44;4.28;;;1.45;;
77278;SDS011;66332;50.436;15.378;2023-04-15T10:06:26;3.33;;;1.15;;
77278;SDS011;66332;50.436;15.378;2023-04-15T10:11:07;3.50;;;1.27;;
77278;SDS011;66332;50.436;15.378;2023-04-15T10:16:11;4.07;;;1.45;;
77278;SDS011;66332;50.436;15.378;2023-04-15T10:20:51;3.55;;;1.13;;
77278;SDS011;66332;50.436;15.378;2023-04-15T10:25:33;7.55;;;2.72;;
77278;SDS011;66332;50.436;15.378;2023-04-15T10:30:14;4.60;;;1.60;;
77278;SDS011;66332;50.436;15.378;2023-04-15T10:34:56;3.63;;;1.17;;
77278;SDS011;66332;50.436;15.378;2023-04-15T10:39:38;3.20;;;1.15;;
77278;SDS011;66332;50.436;15.378;2023-04-15T10:44:22;2.35;;;0.90;;
77278;SDS011;66332;50.436;15.378;2023-04-15T10:49:23;3.45;;;1.13;;
77278;SDS011;66332;50.436;15.378;2023-04-15T10:54:05;4.03;;;1.42;;
77278;SDS011;66332;50.436;15.378;2023-04-15T10:58:52;3.65;;;1.30;;
77278;SDS011;66332;50.436;15.378;2023-04-15T11:03:37;3.78;;;1.30;;
77278;SDS011;66332;50.436;15.378;2023-04-15T11:08:19;3.28;;;1.20;;
77278;SDS011;66332;50.436;15.378;2023-04-15T11:13:05;3.67;;;1.30;;
77278;SDS011;66332;50.436;15.378;2023-04-15T11:17:56;3.17;;;1.20;;
77278;SDS011;66332;50.436;15.378;2023-04-15T11:22:45;27.25;;;11.65;;
77278;SDS011;66332;50.436;15.378;2023-04-15T11:27:29;8.23;;;4.05;;
77278;SDS011;66332;50.436;15.378;2023-04-15T11:32:10;2.72;;;1.05;;
77278;SDS011;66332;50.436;15.378;2023-04-15T11:36:51;3.75;;;1.20;;
77278;SDS011;66332;50.436;15.378;2023-04-15T11:41:36;5.60;;;1.90;;
77278;SDS011;66332;50.436;15.378;2023-04-15T11:46:17;9.05;;;2.80;;
77278;SDS011;66332;50.436;15.378;2023-04-15T11:55:42;3.45;;;1.20;;
77278;SDS011;66332;50.436;15.378;2023-04-15T12:00:25;4.00;;;1.65;;
77278;SDS011;66332;50.436;15.378;2023-04-15T12:05:07;2.92;;;1.20;;
77278;SDS011;66332;50.436;15.378;2023-04-15T12:09:53;4.13;;;1.30;;
77278;SDS011;66332;50.436;15.378;2023-04-15T12:14:36;3.20;;;1.10;;
77278;SDS011;66332;50.436;15.378;2023-04-15T12:19:23;3.92;;;1.40;;
77278;SDS011;66332;50.436;15.378;2023-04-15T12:24:07;3.70;;;1.25;;
77278;SDS011;66332;50.436;15.378;2023-04-15T12:28:49;3.60;;;1.40;;
77278;SDS011;66332;50.436;15.378;2023-04-15T12:33:33;4.53;;;1.50;;
77278;SDS011;66332;50.436;15.378;2023-04-15T12:38:15;4.93;;;1.55;;
77278;SDS011;66332;50.436;15.378;2023-04-15T12:42:56;4.63;;;1.48;;
77278;SDS011;66332;50.436;15.378;2023-04-15T12:47:37;4.03;;;1.25;;
77278;SDS011;66332;50.436;15.378;2023-04-15T12:52:18;3.65;;;1.20;;
77278;SDS011;66332;50.436;15.378;2023-04-15T12:56:59;3.88;;;1.40;;
77278;SDS011;66332;50.436;15.378;2023-04-15T13:01:40;5.35;;;2.20;;
77278;SDS011;66332;50.436;15.378;2023-04-15T13:06:21;4.20;;;1.30;;
77278;SDS011;66332;50.436;15.378;2023-04-15T13:11:04;4.38;;;1.50;;
77278;SDS011;66332;50.436;15.378;2023-04-15T13:15:45;4.13;;;1.38;;
77278;SDS011;66332;50.436;15.378;2023-04-15T13:20:26;4.80;;;1.80;;
77278;SDS011;66332;50.436;15.378;2023-04-15T13:25:07;3.88;;;1.40;;
77278;SDS011;66332;50.436;15.378;2023-04-15T13:29:48;4.25;;;1.40;;
77278;SDS011;66332;50.436;15.378;2023-04-15T13:34:29;4.20;;;1.50;;
77278;SDS011;66332;50.436;15.378;2023-04-15T13:39:10;3.78;;;1.30;;
77278;SDS011;66332;50.436;15.378;2023-04-15T13:43:51;5.57;;;1.90;;
77278;SDS011;66332;50.436;15.378;2023-04-15T13:48:32;4.80;;;1.60;;
77278;SDS011;66332;50.436;15.378;2023-04-15T13:53:13;3.65;;;1.40;;
77278;SDS011;66332;50.436;15.378;2023-04-15T13:57:55;5.72;;;2.38;;
77278;SDS011;66332;50.436;15.378;2023-04-15T14:02:36;4.40;;;1.73;;
77278;SDS011;66332;50.436;15.378;2023-04-15T14:12:05;8.90;;;1.60;;
77278;SDS011;66332;50.436;15.378;2023-04-15T14:16:46;5.13;;;1.60;;
77278;SDS011;66332;50.436;15.378;2023-04-15T14:21:29;5.07;;;1.70;;
77278;SDS011;66332;50.436;15.378;2023-04-15T14:26:11;4.45;;;1.75;;
77278;SDS011;66332;50.436;15.378;2023-04-15T14:30:53;4.22;;;1.60;;
77278;SDS011;66332;50.436;15.378;2023-04-15T14:40:19;4.93;;;1.42;;
77278;SDS011;66332;50.436;15.378;2023-04-15T14:45:15;4.35;;;1.30;;
77278;SDS011;66332;50.436;15.378;2023-04-15T14:49:57;4.20;;;1.50;;
77278;SDS011;66332;50.436;15.378;2023-04-15T14:54:38;4.25;;;1.50;;
77278;SDS011;66332;50.436;15.378;2023-04-15T15:03:59;4.55;;;1.50;;
77278;SDS011;66332;50.436;15.378;2023-04-15T15:08:42;4.30;;;1.60;;
77278;SDS011;66332;50.436;15.378;2023-04-15T15:13:27;3.88;;;1.58;;
77278;SDS011;66332;50.436;15.378;2023-04-15T15:22:49;4.80;;;1.77;;
77278;SDS011;66332;50.436;15.378;2023-04-15T15:27:31;5.78;;;1.65;;
77278;SDS011;66332;50.436;15.378;2023-04-15T15:32:12;4.65;;;1.92;;
77278;SDS011;66332;50.436;15.378;2023-04-15T15:41:35;4.20;;;1.58;;
77278;SDS011;66332;50.436;15.378;2023-04-15T15:46:19;4.53;;;1.77;;
77278;SDS011;66332;50.436;15.378;2023-04-15T15:51:00;4.05;;;1.40;;
77278;SDS011;66332;50.436;15.378;2023-04-15T15:55:40;4.85;;;1.60;;
77278;SDS011;66332;50.436;15.378;2023-04-15T16:05:10;5.32;;;2.00;;
77278;SDS011;66332;50.436;15.378;2023-04-15T16:09:51;4.97;;;1.90;;
77278;SDS011;66332;50.436;15.378;2023-04-15T16:14:32;4.80;;;1.80;;
77278;SDS011;66332;50.436;15.378;2023-04-15T16:24:00;4.78;;;1.83;;
77278;SDS011;66332;50.436;15.378;2023-04-15T16:28:45;4.60;;;1.70;;
77278;SDS011;66332;50.436;15.378;2023-04-15T16:33:26;5.03;;;1.90;;
77278;SDS011;66332;50.436;15.378;2023-04-15T16:38:07;5.35;;;1.88;;
77278;SDS011;66332;50.436;15.378;2023-04-15T16:42:48;5.15;;;1.90;;
77278;SDS011;66332;50.436;15.378;2023-04-15T16:47:29;5.82;;;1.80;;
77278;SDS011;66332;50.436;15.378;2023-04-15T16:52:11;5.43;;;1.73;;
77278;SDS011;66332;50.436;15.378;2023-04-15T16:56:56;4.55;;;1.70;;
77278;SDS011;66332;50.436;15.378;2023-04-15T17:01:41;4.95;;;1.70;;
77278;SDS011;66332;50.436;15.378;2023-04-15T17:06:22;5.85;;;2.05;;
77278;SDS011;66332;50.436;15.378;2023-04-15T17:11:04;5.55;;;2.20;;
77278;SDS011;66332;50.436;15.378;2023-04-15T17:15:52;5.53;;;2.20;;
77278;SDS011;66332;50.436;15.378;2023-04-15T17:25:23;6.10;;;2.42;;
77278;SDS011;66332;50.436;15.378;2023-04-15T17:30:04;7.47;;;3.15;;
77278;SDS011;66332;50.436;15.378;2023-04-15T17:34:49;5.80;;;2.55;;
77278;SDS011;66332;50.436;15.378;2023-04-15T17:39:30;6.30;;;2.58;;
77278;SDS011;66332;50.436;15.378;2023-04-15T17:44:11;6.20;;;2.90;;
77278;SDS011;66332;50.436;15.378;2023-04-15T17:48:52;5.60;;;2.70;;
77278;SDS011;66332;50.436;15.378;2023-04-15T17:53:34;6.93;;;2.78;;
77278;SDS011;66332;50.436;15.378;2023-04-15T18:02:56;9.90;;;5.00;;
77278;SDS011;66332;50.436;15.378;2023-04-15T18:07:37;9.05;;;3.70;;
77278;SDS011;66332;50.436;15.378;2023-04-15T18:12:18;8.55;;;4.13;;
77278;SDS011;66332;50.436;15.378;2023-04-15T18:16:59;10.93;;;5.20;;
77278;SDS011;66332;50.436;15.378;2023-04-15T18:21:45;9.43;;;4.68;;
77278;SDS011;66332;50.436;15.378;2023-04-15T18:26:26;7.65;;;3.78;;
77278;SDS011;66332;50.436;15.378;2023-04-15T18:31:08;10.68;;;5.85;;
77278;SDS011;66332;50.436;15.378;2023-04-15T18:35:49;15.35;;;7.38;;
77278;SDS011;66332;50.436;15.378;2023-04-15T18:40:30;12.77;;;7.05;;
77278;SDS011;66332;50.436;15.378;2023-04-15T18:45:11;8.77;;;4.22;;
77278;SDS011;66332;50.436;15.378;2023-04-15T18:49:52;10.45;;;4.70;;
77278;SDS011;66332;50.436;15.378;2023-04-15T18:54:33;14.57;;;6.20;;
77278;SDS011;66332;50.436;15.378;2023-04-15T18:59:14;14.48;;;6.95;;
77278;SDS011;66332;50.436;15.378;2023-04-15T19:03:55;15.32;;;7.93;;
77278;SDS011;66332;50.436;15.378;2023-04-15T19:08:44;13.10;;;6.78;;
77278;SDS011;66332;50.436;15.378;2023-04-15T19:13:37;12.27;;;5.75;;
77278;SDS011;66332;50.436;15.378;2023-04-15T19:18:18;12.80;;;8.07;;
77278;SDS011;66332;50.436;15.378;2023-04-15T19:22:59;24.42;;;11.73;;
77278;SDS011;66332;50.436;15.378;2023-04-15T19:27:40;29.52;;;17.65;;
77278;SDS011;66332;50.436;15.378;2023-04-15T19:32:21;28.05;;;17.95;;
77278;SDS011;66332;50.436;15.378;2023-04-15T19:37:02;21.20;;;11.48;;
77278;SDS011;66332;50.436;15.378;2023-04-15T19:41:44;19.23;;;9.05;;
77278;SDS011;66332;50.436;15.378;2023-04-15T19:51:06;14.95;;;7.43;;
77278;SDS011;66332;50.436;15.378;2023-04-15T19:56:09;16.63;;;7.78;;
77278;SDS011;66332;50.436;15.378;2023-04-15T20:00:50;13.13;;;7.32;;
77278;SDS011;66332;50.436;15.378;2023-04-15T20:05:31;14.30;;;7.97;;
77278;SDS011;66332;50.436;15.378;2023-04-15T20:10:12;13.55;;;7.47;;
77278;SDS011;66332;50.436;15.378;2023-04-15T20:14:53;12.13;;;7.32;;
77278;SDS011;66332;50.436;15.378;2023-04-15T20:19:35;13.90;;;7.68;;
77278;SDS011;66332;50.436;15.378;2023-04-15T20:24:16;12.50;;;7.22;;
77278;SDS011;66332;50.436;15.378;2023-04-15T20:28:57;10.45;;;5.10;;
77278;SDS011;66332;50.436;15.378;2023-04-15T20:33:39;11.77;;;5.43;;
77278;SDS011;66332;50.436;15.378;2023-04-15T20:38:20;10.65;;;5.43;;
77278;SDS011;66332;50.436;15.378;2023-04-15T20:43:01;9.43;;;4.88;;
77278;SDS011;66332;50.436;15.378;2023-04-15T20:47:43;9.55;;;4.75;;
77278;SDS011;66332;50.436;15.378;2023-04-15T20:52:24;10.30;;;5.05;;
77278;SDS011;66332;50.436;15.378;2023-04-15T20:57:04;12.02;;;5.38;;
77278;SDS011;66332;50.436;15.378;2023-04-15T21:01:45;16.63;;;7.88;;
77278;SDS011;66332;50.436;15.378;2023-04-15T21:06:26;12.95;;;6.60;;
77278;SDS011;66332;50.436;15.378;2023-04-15T21:11:07;12.18;;;6.72;;
77278;SDS011;66332;50.436;15.378;2023-04-15T21:15:48;10.23;;;5.43;;
77278;SDS011;66332;50.436;15.378;2023-04-15T21:20:32;12.30;;;6.60;;
77278;SDS011;66332;50.436;15.378;2023-04-15T21:25:13;14.02;;;6.72;;
77278;SDS011;66332;50.436;15.378;2023-04-15T21:29:54;11.75;;;5.78;;
77278;SDS011;66332;50.436;15.378;2023-04-15T21:34:35;18.80;;;10.68;;
77278;SDS011;66332;50.436;15.378;2023-04-15T21:39:16;16.67;;;8.10;;
77278;SDS011;66332;50.436;15.378;2023-04-15T21:43:57;15.50;;;8.30;;
77278;SDS011;66332;50.436;15.378;2023-04-15T21:48:38;16.80;;;8.27;;
77278;SDS011;66332;50.436;15.378;2023-04-15T21:53:19;18.27;;;9.32;;
